sensor_id;sensor_type;location;lat;lon;timestamp;pressure;altitude;pressure_sealevel;temperature;humidity
50105;BME280;47690;39.202;-77.198;2023-08-24T00:01:53;100153.81;;;25.99;46.12
50105;BME280;47690;39.202;-77.198;2023-08-24T00:04:24;100153.94;;;25.98;46.45
50105;BME280;47690;39.202;-77.198;2023-08-24T00:06:56;100161.00;;;25.97;46.52
50105;BME280;47690;39.202;-77.198;2023-08-24T00:09:37;100169.06;;;25.96;46.23
50105;BME280;47690;39.202;-77.198;2023-08-24T00:12:12;100164.72;;;25.95;46.40
50105;BME280;47690;39.202;-77.198;2023-08-24T00:14:44;100176.41;;;25.92;46.99
50105;BME280;47690;39.202;-77.198;2023-08-24T00:17:14;100176.50;;;25.90;46.72
50105;BME280;47690;39.202;-77.198;2023-08-24T00:19:48;100173.28;;;25.87;46.49
50105;BME280;47690;39.202;-77.198;2023-08-24T00:22:28;100183.13;;;25.85;47.20
50105;BME280;47690;39.202;-77.198;2023-08-24T00:25:00;100186.84;;;25.82;46.65
50105;BME280;47690;39.202;-77.198;2023-08-24T00:27:32;100186.16;;;25.80;47.07
50105;BME280;47690;39.202;-77.198;2023-08-24T00:30:12;100192.63;;;25.76;47.17
50105;BME280;47690;39.202;-77.198;2023-08-24T00:32:43;100194.41;;;25.75;47.46
50105;BME280;47690;39.202;-77.198;2023-08-24T00:35:14;100206.06;;;25.73;47.08
50105;BME280;47690;39.202;-77.198;2023-08-24T00:37:45;100201.88;;;25.70;47.24
50105;BME280;47690;39.202;-77.198;2023-08-24T00:40:17;100202.84;;;25.69;47.25
50105;BME280;47690;39.202;-77.198;2023-08-24T00:42:51;100205.59;;;25.68;47.07
50105;BME280;47690;39.202;-77.198;2023-08-24T00:45:32;100210.16;;;25.66;47.55
50105;BME280;47690;39.202;-77.198;2023-08-24T00:48:18;100228.72;;;25.64;47.88
50105;BME280;47690;39.202;-77.198;2023-08-24T00:51:02;100227.88;;;25.63;47.68
50105;BME280;47690;39.202;-77.198;2023-08-24T00:53:47;100245.53;;;25.63;48.05
50105;BME280;47690;39.202;-77.198;2023-08-24T00:56:20;100245.63;;;25.61;48.06
50105;BME280;47690;39.202;-77.198;2023-08-24T00:58:55;100253.66;;;25.60;47.85
50105;BME280;47690;39.202;-77.198;2023-08-24T01:01:33;100254.63;;;25.59;48.13
50105;BME280;47690;39.202;-77.198;2023-08-24T01:04:13;100260.00;;;25.57;48.30
50105;BME280;47690;39.202;-77.198;2023-08-24T01:06:44;100262.78;;;25.56;48.52
50105;BME280;47690;39.202;-77.198;2023-08-24T01:09:18;100264.69;;;25.54;48.21
50105;BME280;47690;39.202;-77.198;2023-08-24T01:12:17;100278.84;;;25.53;48.48
50105;BME280;47690;39.202;-77.198;2023-08-24T01:15:27;100287.47;;;25.55;48.53
50105;BME280;47690;39.202;-77.198;2023-08-24T01:18:18;100293.06;;;25.50;48.46
50105;BME280;47690;39.202;-77.198;2023-08-24T01:21:04;100292.47;;;25.46;48.63
50105;BME280;47690;39.202;-77.198;2023-08-24T01:27:04;100289.34;;;25.41;49.13
50105;BME280;47690;39.202;-77.198;2023-08-24T01:29:42;100286.94;;;25.38;49.14
50105;BME280;47690;39.202;-77.198;2023-08-24T01:32:15;100292.34;;;25.36;49.21
50105;BME280;47690;39.202;-77.198;2023-08-24T01:34:46;100300.38;;;25.35;49.45
50105;BME280;47690;39.202;-77.198;2023-08-24T01:37:17;100297.25;;;25.30;49.51
50105;BME280;47690;39.202;-77.198;2023-08-24T01:42:51;100282.38;;;25.29;49.67
50105;BME280;47690;39.202;-77.198;2023-08-24T01:45:31;100282.63;;;25.26;49.67
50105;BME280;47690;39.202;-77.198;2023-08-24T01:48:12;100275.56;;;25.26;50.07
50105;BME280;47690;39.202;-77.198;2023-08-24T01:50:54;100283.59;;;25.25;49.85
50105;BME280;47690;39.202;-77.198;2023-08-24T01:53:38;100273.06;;;25.25;49.82
50105;BME280;47690;39.202;-77.198;2023-08-24T01:56:13;100258.31;;;25.22;49.75
50105;BME280;47690;39.202;-77.198;2023-08-24T01:58:51;100251.47;;;25.19;50.14
50105;BME280;47690;39.202;-77.198;2023-08-24T02:01:26;100259.38;;;25.19;50.13
50105;BME280;47690;39.202;-77.198;2023-08-24T02:04:12;100256.97;;;25.16;50.31
50105;BME280;47690;39.202;-77.198;2023-08-24T02:06:45;100244.88;;;25.14;50.46
50105;BME280;47690;39.202;-77.198;2023-08-24T02:09:17;100234.56;;;25.10;50.91
50105;BME280;47690;39.202;-77.198;2023-08-24T02:11:55;100234.81;;;25.07;50.62
50105;BME280;47690;39.202;-77.198;2023-08-24T02:14:56;100239.47;;;25.04;50.57
50105;BME280;47690;39.202;-77.198;2023-08-24T02:17:29;100239.59;;;25.02;50.69
50105;BME280;47690;39.202;-77.198;2023-08-24T02:20:01;100236.47;;;24.97;51.16
50105;BME280;47690;39.202;-77.198;2023-08-24T02:22:43;100224.34;;;24.94;51.14
50105;BME280;47690;39.202;-77.198;2023-08-24T02:25:32;100221.97;;;24.91;51.42
50105;BME280;47690;39.202;-77.198;2023-08-24T02:28:20;100226.28;;;24.92;51.32
50105;BME280;47690;39.202;-77.198;2023-08-24T02:31:07;100244.00;;;24.90;51.49
50105;BME280;47690;39.202;-77.198;2023-08-24T02:34:12;100256.47;;;24.88;51.65
50105;BME280;47690;39.202;-77.198;2023-08-24T02:37:21;100269.75;;;24.87;52.00
50105;BME280;47690;39.202;-77.198;2023-08-24T02:40:17;100271.97;;;24.80;51.62
50105;BME280;47690;39.202;-77.198;2023-08-24T02:43:17;100282.63;;;24.78;51.93
50105;BME280;47690;39.202;-77.198;2023-08-24T02:46:16;100292.00;;;24.82;52.92
50105;BME280;47690;39.202;-77.198;2023-08-24T02:49:20;100289.16;;;24.73;52.47
50105;BME280;47690;39.202;-77.198;2023-08-24T02:52:23;100281.50;;;24.69;52.81
50105;BME280;47690;39.202;-77.198;2023-08-24T02:56:05;100278.88;;;24.69;52.97
50105;BME280;47690;39.202;-77.198;2023-08-24T02:59:17;100267.84;;;24.64;52.71
50105;BME280;47690;39.202;-77.198;2023-08-24T03:02:06;100275.63;;;24.66;52.85
50105;BME280;47690;39.202;-77.198;2023-08-24T03:05:10;100279.31;;;24.63;52.91
50105;BME280;47690;39.202;-77.198;2023-08-24T03:08:08;100276.94;;;24.60;52.94
50105;BME280;47690;39.202;-77.198;2023-08-24T03:10:55;100275.25;;;24.59;53.13
50105;BME280;47690;39.202;-77.198;2023-08-24T03:13:36;100265.69;;;24.58;53.39
50105;BME280;47690;39.202;-77.198;2023-08-24T03:16:14;100255.34;;;24.55;53.48
50105;BME280;47690;39.202;-77.198;2023-08-24T03:18:49;100266.84;;;24.54;53.41
50105;BME280;47690;39.202;-77.198;2023-08-24T03:21:28;100269.47;;;24.54;53.79
50105;BME280;47690;39.202;-77.198;2023-08-24T03:23:58;100256.41;;;24.52;53.78
50105;BME280;47690;39.202;-77.198;2023-08-24T03:26:38;100263.34;;;24.53;53.89
50105;BME280;47690;39.202;-77.198;2023-08-24T03:29:21;100260.72;;;24.53;53.81
50105;BME280;47690;39.202;-77.198;2023-08-24T03:31:56;100258.94;;;24.54;54.17
50105;BME280;47690;39.202;-77.198;2023-08-24T03:35:05;100256.22;;;24.55;54.43
50105;BME280;47690;39.202;-77.198;2023-08-24T03:37:41;100250.34;;;24.52;53.95
50105;BME280;47690;39.202;-77.198;2023-08-24T03:40:16;100254.13;;;24.48;54.19
50105;BME280;47690;39.202;-77.198;2023-08-24T03:43:09;100268.16;;;24.48;54.33
50105;BME280;47690;39.202;-77.198;2023-08-24T03:45:52;100261.31;;;24.46;54.51
50105;BME280;47690;39.202;-77.198;2023-08-24T03:48:38;100269.22;;;24.46;54.37
50105;BME280;47690;39.202;-77.198;2023-08-24T03:51:18;100257.97;;;24.44;54.16
50105;BME280;47690;39.202;-77.198;2023-08-24T03:53:55;100277.94;;;24.46;54.17
50105;BME280;47690;39.202;-77.198;2023-08-24T03:56:39;100260.47;;;24.45;54.21
50105;BME280;47690;39.202;-77.198;2023-08-24T03:59:27;100256.16;;;24.44;54.10
50105;BME280;47690;39.202;-77.198;2023-08-24T04:02:33;100250.88;;;24.44;54.07
50105;BME280;47690;39.202;-77.198;2023-08-24T04:05:16;100251.75;;;24.45;54.04
50105;BME280;47690;39.202;-77.198;2023-08-24T04:07:57;100242.88;;;24.46;53.80
50105;BME280;47690;39.202;-77.198;2023-08-24T04:10:52;100236.66;;;24.47;53.68
50105;BME280;47690;39.202;-77.198;2023-08-24T04:13:28;100229.72;;;24.46;54.04
50105;BME280;47690;39.202;-77.198;2023-08-24T04:16:12;100222.66;;;24.46;53.73
50105;BME280;47690;39.202;-77.198;2023-08-24T04:18:50;100224.22;;;24.49;53.73
50105;BME280;47690;39.202;-77.198;2023-08-24T04:21:28;100216.44;;;24.47;53.42
50105;BME280;47690;39.202;-77.198;2023-08-24T04:24:14;100207.47;;;24.50;53.79
50105;BME280;47690;39.202;-77.198;2023-08-24T04:27:01;100207.59;;;24.48;53.77
50105;BME280;47690;39.202;-77.198;2023-08-24T04:29:40;100205.16;;;24.45;53.75
50105;BME280;47690;39.202;-77.198;2023-08-24T04:32:17;100210.56;;;24.44;53.90
50105;BME280;47690;39.202;-77.198;2023-08-24T04:35:14;100193.94;;;24.43;53.34
50105;BME280;47690;39.202;-77.198;2023-08-24T04:38:06;100183.41;;;24.43;53.64
50105;BME280;47690;39.202;-77.198;2023-08-24T04:41:15;100183.41;;;24.43;53.44
50105;BME280;47690;39.202;-77.198;2023-08-24T04:43:56;100182.69;;;24.41;53.27
50105;BME280;47690;39.202;-77.198;2023-08-24T04:46:57;100205.53;;;24.40;53.43
50105;BME280;47690;39.202;-77.198;2023-08-24T04:49:46;100203.84;;;24.39;53.17
50105;BME280;47690;39.202;-77.198;2023-08-24T04:52:51;100215.09;;;24.41;53.42
50105;BME280;47690;39.202;-77.198;2023-08-24T04:55:52;100213.53;;;24.39;53.38
50105;BME280;47690;39.202;-77.198;2023-08-24T04:59:14;100223.00;;;24.41;52.99
50105;BME280;47690;39.202;-77.198;2023-08-24T05:01:59;100218.19;;;24.35;53.07
50105;BME280;47690;39.202;-77.198;2023-08-24T05:04:33;100217.34;;;24.35;53.25
50105;BME280;47690;39.202;-77.198;2023-08-24T05:07:26;100227.88;;;24.35;53.06
50105;BME280;47690;39.202;-77.198;2023-08-24T05:10:24;100235.69;;;24.36;52.93
50105;BME280;47690;39.202;-77.198;2023-08-24T05:13:06;100234.94;;;24.34;52.83
50105;BME280;47690;39.202;-77.198;2023-08-24T05:15:52;100242.00;;;24.34;52.95
50105;BME280;47690;39.202;-77.198;2023-08-24T05:18:35;100232.53;;;24.31;53.20
50105;BME280;47690;39.202;-77.198;2023-08-24T05:21:32;100218.53;;;24.31;53.20
50105;BME280;47690;39.202;-77.198;2023-08-24T05:24:07;100206.22;;;24.31;52.88
50105;BME280;47690;39.202;-77.198;2023-08-24T05:27:12;100198.22;;;24.33;52.78
50105;BME280;47690;39.202;-77.198;2023-08-24T05:30:17;100201.78;;;24.32;52.68
50105;BME280;47690;39.202;-77.198;2023-08-24T05:32:56;100186.22;;;24.28;52.74
50105;BME280;47690;39.202;-77.198;2023-08-24T05:36:01;100178.22;;;24.30;53.03
50105;BME280;47690;39.202;-77.198;2023-08-24T05:38:59;100174.84;;;24.28;52.95
50105;BME280;47690;39.202;-77.198;2023-08-24T05:41:54;100164.31;;;24.28;52.61
50105;BME280;47690;39.202;-77.198;2023-08-24T05:44:48;100162.63;;;24.27;52.68
50105;BME280;47690;39.202;-77.198;2023-08-24T05:47:50;100174.13;;;24.26;52.68
50105;BME280;47690;39.202;-77.198;2023-08-24T05:50:46;100163.59;;;24.26;53.02
50105;BME280;47690;39.202;-77.198;2023-08-24T05:53:25;100174.13;;;24.26;52.81
50105;BME280;47690;39.202;-77.198;2023-08-24T05:56:46;100173.41;;;24.24;52.51
50105;BME280;47690;39.202;-77.198;2023-08-24T05:59:33;100171.59;;;24.24;52.71
50105;BME280;47690;39.202;-77.198;2023-08-24T06:02:54;100177.00;;;24.23;52.61
50105;BME280;47690;39.202;-77.198;2023-08-24T06:06:11;100172.44;;;24.25;52.83
50105;BME280;47690;39.202;-77.198;2023-08-24T06:09:19;100167.44;;;24.22;52.87
50105;BME280;47690;39.202;-77.198;2023-08-24T06:12:19;100170.06;;;24.22;52.83
50105;BME280;47690;39.202;-77.198;2023-08-24T06:15:23;100182.38;;;24.21;52.74
50105;BME280;47690;39.202;-77.198;2023-08-24T06:18:45;100177.09;;;24.21;52.98
50105;BME280;47690;39.202;-77.198;2023-08-24T06:21:41;100177.94;;;24.22;52.86
50105;BME280;47690;39.202;-77.198;2023-08-24T06:24:29;100184.13;;;24.21;52.89
50105;BME280;47690;39.202;-77.198;2023-08-24T06:27:21;100182.47;;;24.20;52.90
50105;BME280;47690;39.202;-77.198;2023-08-24T06:30:30;100174.47;;;24.21;53.17
50105;BME280;47690;39.202;-77.198;2023-08-24T06:33:20;100168.25;;;24.22;53.01
50105;BME280;47690;39.202;-77.198;2023-08-24T06:36:28;100170.88;;;24.22;53.09
50105;BME280;47690;39.202;-77.198;2023-08-24T06:39:26;100173.63;;;24.21;53.00
50105;BME280;47690;39.202;-77.198;2023-08-24T06:42:25;100177.94;;;24.22;53.03
50105;BME280;47690;39.202;-77.198;2023-08-24T06:45:18;100173.50;;;24.22;53.09
50105;BME280;47690;39.202;-77.198;2023-08-24T06:47:55;100184.13;;;24.21;53.12
50105;BME280;47690;39.202;-77.198;2023-08-24T06:51:04;100186.66;;;24.22;52.92
50105;BME280;47690;39.202;-77.198;2023-08-24T06:54:06;100192.88;;;24.21;53.02
50105;BME280;47690;39.202;-77.198;2023-08-24T06:57:14;100184.13;;;24.21;53.04
50105;BME280;47690;39.202;-77.198;2023-08-24T07:00:26;100189.41;;;24.21;53.30
50105;BME280;47690;39.202;-77.198;2023-08-24T07:03:19;100200.78;;;24.21;53.52
50105;BME280;47690;39.202;-77.198;2023-08-24T07:06:40;100193.00;;;24.20;53.45
50105;BME280;47690;39.202;-77.198;2023-08-24T07:09:44;100188.59;;;24.20;53.76
50105;BME280;47690;39.202;-77.198;2023-08-24T07:12:32;100184.38;;;24.18;53.34
50105;BME280;47690;39.202;-77.198;2023-08-24T07:15:37;100177.34;;;24.18;53.67
50105;BME280;47690;39.202;-77.198;2023-08-24T07:18:35;100164.19;;;24.18;53.61
50105;BME280;47690;39.202;-77.198;2023-08-24T07:21:22;100152.81;;;24.18;53.47
50105;BME280;47690;39.202;-77.198;2023-08-24T07:24:25;100153.66;;;24.18;53.51
50105;BME280;47690;39.202;-77.198;2023-08-24T07:27:22;100144.06;;;24.17;53.99
50105;BME280;47690;39.202;-77.198;2023-08-24T07:30:17;100145.00;;;24.16;53.86
50105;BME280;47690;39.202;-77.198;2023-08-24T07:33:25;100145.16;;;24.14;53.91
50105;BME280;47690;39.202;-77.198;2023-08-24T07:36:04;100153.03;;;24.14;53.82
50105;BME280;47690;39.202;-77.198;2023-08-24T07:39:06;100155.69;;;24.14;54.11
50105;BME280;47690;39.202;-77.198;2023-08-24T07:41:59;100142.63;;;24.13;53.83
50105;BME280;47690;39.202;-77.198;2023-08-24T07:44:45;100136.31;;;24.16;54.43
50105;BME280;47690;39.202;-77.198;2023-08-24T07:47:46;100131.13;;;24.14;54.33
50105;BME280;47690;39.202;-77.198;2023-08-24T07:50:21;100126.94;;;24.11;54.21
50105;BME280;47690;39.202;-77.198;2023-08-24T07:53:20;100127.78;;;24.12;54.43
50105;BME280;47690;39.202;-77.198;2023-08-24T07:56:15;100135.56;;;24.13;54.49
50105;BME280;47690;39.202;-77.198;2023-08-24T07:58:54;100131.50;;;24.09;54.32
50105;BME280;47690;39.202;-77.198;2023-08-24T08:01:40;100127.19;;;24.08;54.71
50105;BME280;47690;39.202;-77.198;2023-08-24T08:04:27;100121.06;;;24.08;54.69
50105;BME280;47690;39.202;-77.198;2023-08-24T08:07:12;100115.81;;;24.08;54.67
50105;BME280;47690;39.202;-77.198;2023-08-24T08:09:47;100121.06;;;24.08;54.84
50105;BME280;47690;39.202;-77.198;2023-08-24T08:12:39;100123.69;;;24.08;54.99
50105;BME280;47690;39.202;-77.198;2023-08-24T08:15:41;100122.88;;;24.07;55.01
50105;BME280;47690;39.202;-77.198;2023-08-24T08:18:16;100123.69;;;24.08;55.15
50105;BME280;47690;39.202;-77.198;2023-08-24T08:21:20;100117.63;;;24.07;55.12
50105;BME280;47690;39.202;-77.198;2023-08-24T08:24:05;100115.16;;;24.04;55.17
50105;BME280;47690;39.202;-77.198;2023-08-24T08:26:53;100119.81;;;24.00;54.81
50105;BME280;47690;39.202;-77.198;2023-08-24T08:29:27;100115.69;;;24.09;55.35
50105;BME280;47690;39.202;-77.198;2023-08-24T08:32:06;100120.66;;;24.01;55.24
50105;BME280;47690;39.202;-77.198;2023-08-24T08:34:50;100116.47;;;23.98;55.29
50105;BME280;47690;39.202;-77.198;2023-08-24T08:37:21;100108.69;;;23.97;55.40
50105;BME280;47690;39.202;-77.198;2023-08-24T08:40:01;100105.09;;;23.98;55.60
50105;BME280;47690;39.202;-77.198;2023-08-24T08:42:41;100091.13;;;23.97;55.55
50105;BME280;47690;39.202;-77.198;2023-08-24T08:45:28;100090.16;;;23.98;55.18
50105;BME280;47690;39.202;-77.198;2023-08-24T08:48:14;100104.28;;;23.97;55.46
50105;BME280;47690;39.202;-77.198;2023-08-24T08:51:02;100106.16;;;23.95;55.26
50105;BME280;47690;39.202;-77.198;2023-08-24T08:53:35;100087.03;;;23.93;55.33
50105;BME280;47690;39.202;-77.198;2023-08-24T08:56:13;100098.25;;;23.95;55.42
50105;BME280;47690;39.202;-77.198;2023-08-24T08:58:55;100108.91;;;23.94;55.12
50105;BME280;47690;39.202;-77.198;2023-08-24T09:01:44;100115.00;;;23.94;55.52
50105;BME280;47690;39.202;-77.198;2023-08-24T09:04:36;100112.50;;;23.93;55.17
50105;BME280;47690;39.202;-77.198;2023-08-24T09:07:18;100117.44;;;23.97;54.73
50105;BME280;47690;39.202;-77.198;2023-08-24T09:09:58;100126.72;;;23.90;55.01
50105;BME280;47690;39.202;-77.198;2023-08-24T09:13:00;100116.53;;;23.85;55.37
50105;BME280;47690;39.202;-77.198;2023-08-24T09:15:34;100113.16;;;23.83;55.03
50105;BME280;47690;39.202;-77.198;2023-08-24T09:18:33;100107.91;;;23.83;55.26
50105;BME280;47690;39.202;-77.198;2023-08-24T09:21:19;100108.66;;;23.85;55.23
50105;BME280;47690;39.202;-77.198;2023-08-24T09:24:13;100128.00;;;23.84;54.79
50105;BME280;47690;39.202;-77.198;2023-08-24T09:27:16;100118.41;;;23.83;55.07
50105;BME280;47690;39.202;-77.198;2023-08-24T09:29:51;100116.75;;;23.82;54.98
50105;BME280;47690;39.202;-77.198;2023-08-24T09:32:28;100123.91;;;23.80;55.29
50105;BME280;47690;39.202;-77.198;2023-08-24T09:35:12;100133.38;;;23.83;54.80
50105;BME280;47690;39.202;-77.198;2023-08-24T09:37:57;100138.63;;;23.83;55.31
50105;BME280;47690;39.202;-77.198;2023-08-24T09:40:28;100136.84;;;23.83;55.11
50105;BME280;47690;39.202;-77.198;2023-08-24T09:43:05;100132.44;;;23.84;54.77
50105;BME280;47690;39.202;-77.198;2023-08-24T09:45:54;100133.38;;;23.83;54.50
50105;BME280;47690;39.202;-77.198;2023-08-24T09:48:41;100140.41;;;23.82;54.81
50105;BME280;47690;39.202;-77.198;2023-08-24T09:51:16;100134.34;;;23.82;54.79
50105;BME280;47690;39.202;-77.198;2023-08-24T09:53:50;100129.28;;;23.79;54.15
50105;BME280;47690;39.202;-77.198;2023-08-24T09:56:21;100130.13;;;23.79;54.45
50105;BME280;47690;39.202;-77.198;2023-08-24T09:59:17;100119.00;;;23.76;54.64
50105;BME280;47690;39.202;-77.198;2023-08-24T10:01:57;100118.28;;;23.73;54.05
50105;BME280;47690;39.202;-77.198;2023-08-24T10:04:38;100129.00;;;23.70;54.22
50105;BME280;47690;39.202;-77.198;2023-08-24T10:07:28;100122.06;;;23.69;54.19
50105;BME280;47690;39.202;-77.198;2023-08-24T10:10:10;100134.25;;;23.70;53.81
50105;BME280;47690;39.202;-77.198;2023-08-24T10:13:04;100133.44;;;23.70;53.98
50105;BME280;47690;39.202;-77.198;2023-08-24T10:15:54;100140.72;;;23.66;54.13
50105;BME280;47690;39.202;-77.198;2023-08-24T10:18:49;100130.31;;;23.65;53.93
50105;BME280;47690;39.202;-77.198;2023-08-24T10:21:33;100129.56;;;23.63;53.70
50105;BME280;47690;39.202;-77.198;2023-08-24T10:24:04;100137.56;;;23.61;53.67
50105;BME280;47690;39.202;-77.198;2023-08-24T10:26:42;100137.66;;;23.59;53.67
50105;BME280;47690;39.202;-77.198;2023-08-24T10:29:13;100141.16;;;23.60;53.41
50105;BME280;47690;39.202;-77.198;2023-08-24T10:31:45;100146.41;;;23.60;53.50
50105;BME280;47690;39.202;-77.198;2023-08-24T10:34:24;100140.28;;;23.59;53.57
50105;BME280;47690;39.202;-77.198;2023-08-24T10:36:56;100142.09;;;23.59;53.22
50105;BME280;47690;39.202;-77.198;2023-08-24T10:39:27;100149.13;;;23.58;53.09
50105;BME280;47690;39.202;-77.198;2023-08-24T10:42:00;100153.53;;;23.58;53.32
50105;BME280;47690;39.202;-77.198;2023-08-24T10:44:35;100147.56;;;23.56;53.01
50105;BME280;47690;39.202;-77.198;2023-08-24T10:47:12;100157.25;;;23.55;53.52
50105;BME280;47690;39.202;-77.198;2023-08-24T10:49:45;100169.56;;;23.55;53.11
50105;BME280;47690;39.202;-77.198;2023-08-24T10:52:34;100168.69;;;23.54;53.21
50105;BME280;47690;39.202;-77.198;2023-08-24T10:55:26;100173.03;;;23.55;53.22
50105;BME280;47690;39.202;-77.198;2023-08-24T10:58:01;100176.72;;;23.53;53.06
50105;BME280;47690;39.202;-77.198;2023-08-24T11:00:32;100184.69;;;23.51;53.09
50105;BME280;47690;39.202;-77.198;2023-08-24T11:03:04;100177.66;;;23.52;53.17
50105;BME280;47690;39.202;-77.198;2023-08-24T11:05:41;100175.84;;;23.52;52.77
50105;BME280;47690;39.202;-77.198;2023-08-24T11:08:19;100175.13;;;23.50;53.11
50105;BME280;47690;39.202;-77.198;2023-08-24T11:10:49;100169.16;;;23.48;53.09
50105;BME280;47690;39.202;-77.198;2023-08-24T11:13:21;100177.03;;;23.48;52.99
50105;BME280;47690;39.202;-77.198;2023-08-24T11:15:57;100176.59;;;23.54;52.51
50105;BME280;47690;39.202;-77.198;2023-08-24T11:18:30;100171.16;;;23.44;52.67
50105;BME280;47690;39.202;-77.198;2023-08-24T11:21:05;100172.94;;;23.44;52.85
50105;BME280;47690;39.202;-77.198;2023-08-24T11:23:40;100180.09;;;23.42;53.37
50105;BME280;47690;39.202;-77.198;2023-08-24T11:26:13;100174.00;;;23.41;53.03
50105;BME280;47690;39.202;-77.198;2023-08-24T11:28:42;100183.69;;;23.41;53.12
50105;BME280;47690;39.202;-77.198;2023-08-24T11:31:14;100181.88;;;23.41;53.63
50105;BME280;47690;39.202;-77.198;2023-08-24T11:33:47;100199.31;;;23.42;53.10
50105;BME280;47690;39.202;-77.198;2023-08-24T11:36:22;100195.03;;;23.41;53.50
50105;BME280;47690;39.202;-77.198;2023-08-24T11:38:58;100189.66;;;23.43;53.41
50105;BME280;47690;39.202;-77.198;2023-08-24T11:41:29;100210.78;;;23.41;53.33
50105;BME280;47690;39.202;-77.198;2023-08-24T11:44:08;100211.63;;;23.42;53.47
50105;BME280;47690;39.202;-77.198;2023-08-24T11:46:58;100215.94;;;23.43;53.64
50105;BME280;47690;39.202;-77.198;2023-08-24T11:49:30;100214.28;;;23.42;54.13
50105;BME280;47690;39.202;-77.198;2023-08-24T11:52:00;100223.94;;;23.41;53.76
50105;BME280;47690;39.202;-77.198;2023-08-24T11:54:32;100233.41;;;23.44;54.02
50105;BME280;47690;39.202;-77.198;2023-08-24T11:57:10;100238.66;;;23.44;54.41
50105;BME280;47690;39.202;-77.198;2023-08-24T11:59:39;100232.00;;;23.51;54.31
50105;BME280;47690;39.202;-77.198;2023-08-24T12:02:09;100228.13;;;23.44;54.28
50105;BME280;47690;39.202;-77.198;2023-08-24T12:04:41;100230.75;;;23.44;54.79
50105;BME280;47690;39.202;-77.198;2023-08-24T12:07:16;100238.66;;;23.44;55.05
50105;BME280;47690;39.202;-77.198;2023-08-24T12:09:46;100233.41;;;23.44;54.83
50105;BME280;47690;39.202;-77.198;2023-08-24T12:12:17;100240.22;;;23.46;55.23
50105;BME280;47690;39.202;-77.198;2023-08-24T12:14:54;100232.13;;;23.50;55.26
50105;BME280;47690;39.202;-77.198;2023-08-24T12:17:42;100227.63;;;23.52;55.45
50105;BME280;47690;39.202;-77.198;2023-08-24T12:20:21;100209.22;;;23.52;55.41
50105;BME280;47690;39.202;-77.198;2023-08-24T12:22:55;100211.84;;;23.52;55.85
50105;BME280;47690;39.202;-77.198;2023-08-24T12:25:43;100207.22;;;23.55;55.72
50105;BME280;47690;39.202;-77.198;2023-08-24T12:28:30;100207.41;;;23.52;55.87
50105;BME280;47690;39.202;-77.198;2023-08-24T12:31:29;100203.72;;;23.55;56.41
50105;BME280;47690;39.202;-77.198;2023-08-24T12:34:10;100208.13;;;23.54;56.32
50105;BME280;47690;39.202;-77.198;2023-08-24T12:36:46;100214.25;;;23.55;56.35
50105;BME280;47690;39.202;-77.198;2023-08-24T12:39:26;100207.94;;;23.57;56.62
50105;BME280;47690;39.202;-77.198;2023-08-24T12:42:05;100200.75;;;23.59;56.53
50105;BME280;47690;39.202;-77.198;2023-08-24T12:44:45;100190.97;;;23.62;56.30
50105;BME280;47690;39.202;-77.198;2023-08-24T12:47:25;100188.25;;;23.63;55.93
50105;BME280;47690;39.202;-77.198;2023-08-24T12:50:11;100184.56;;;23.66;56.73
50105;BME280;47690;39.202;-77.198;2023-08-24T12:52:44;100191.50;;;23.67;56.35
50105;BME280;47690;39.202;-77.198;2023-08-24T12:55:20;100198.44;;;23.68;56.10
50105;BME280;47690;39.202;-77.198;2023-08-24T12:57:57;100209.56;;;23.71;56.49
50105;BME280;47690;39.202;-77.198;2023-08-24T13:00:32;100207.78;;;23.72;56.77
50105;BME280;47690;39.202;-77.198;2023-08-24T13:03:08;100203.16;;;23.76;56.21
50105;BME280;47690;39.202;-77.198;2023-08-24T13:05:41;100204.81;;;23.77;56.30
50105;BME280;47690;39.202;-77.198;2023-08-24T13:08:11;100208.31;;;23.77;56.03
50105;BME280;47690;39.202;-77.198;2023-08-24T13:10:42;100215.34;;;23.77;56.10
50105;BME280;47690;39.202;-77.198;2023-08-24T13:13:11;100216.06;;;23.79;56.26
50105;BME280;47690;39.202;-77.198;2023-08-24T13:15:52;100211.66;;;23.79;55.81
50105;BME280;47690;39.202;-77.198;2023-08-24T13:18:29;100211.56;;;23.81;55.95
50105;BME280;47690;39.202;-77.198;2023-08-24T13:20:58;100212.38;;;23.81;55.73
50105;BME280;47690;39.202;-77.198;2023-08-24T13:23:34;100213.09;;;23.83;55.91
50105;BME280;47690;39.202;-77.198;2023-08-24T13:26:24;100202.38;;;23.86;55.97
50105;BME280;47690;39.202;-77.198;2023-08-24T13:28:54;100194.59;;;23.85;55.92
50105;BME280;47690;39.202;-77.198;2023-08-24T13:31:26;100196.25;;;23.86;55.38
50105;BME280;47690;39.202;-77.198;2023-08-24T13:33:56;100196.16;;;23.87;55.75
50105;BME280;47690;39.202;-77.198;2023-08-24T13:36:26;100195.09;;;23.90;55.71
50105;BME280;47690;39.202;-77.198;2023-08-24T13:39:13;100197.75;;;23.90;55.55
50105;BME280;47690;39.202;-77.198;2023-08-24T13:41:46;100204.66;;;23.91;55.68
50105;BME280;47690;39.202;-77.198;2023-08-24T13:44:24;100208.97;;;23.92;55.48
50105;BME280;47690;39.202;-77.198;2023-08-24T13:46:53;100208.03;;;23.93;55.72
50105;BME280;47690;39.202;-77.198;2023-08-24T13:49:29;100207.69;;;23.98;56.22
50105;BME280;47690;39.202;-77.198;2023-08-24T13:52:12;100212.00;;;23.99;56.00
50105;BME280;47690;39.202;-77.198;2023-08-24T13:54:45;100211.88;;;24.00;55.64
50105;BME280;47690;39.202;-77.198;2023-08-24T13:57:45;100208.31;;;24.01;55.79
50105;BME280;47690;39.202;-77.198;2023-08-24T14:00:20;100201.38;;;24.00;55.96
50105;BME280;47690;39.202;-77.198;2023-08-24T14:02:53;100203.91;;;24.02;55.84
50105;BME280;47690;39.202;-77.198;2023-08-24T14:05:26;100201.97;;;24.04;55.97